• °C
  • Pobieranie danych...
wx


PRINT OUT SECTION, show »

TAF EPBY 121730Z 1218/1318 31010KT CAVOK
TEMPO 1218/1220 33015G30KT 6000 SHRA SCT013 BKN020CB
TEMPO 1306/1318 33015G30KT=

TAF EPGD 121730Z 1218/1318 30012KT CAVOK
TEMPO 1218/1318 30018G28KT=

TAF EPKK 121730Z 1218/1318 24008KT CAVOK
TEMPO 1218/1223 4000 SHRA BKN025CB
PROB40 TEMPO 1218/1221 VRB20G32KT 1400 +TSRA
BECMG 1220/1223 30010KT
BECMG 1306/1308 32016G28KT=

TAF EPKT 121730Z 1218/1318 31010KT CAVOK
TEMPO 1218/1222 4000 SHRA BKN020CB
PROB30 TEMPO 1218/1219 VRB20G30KT 1400 +TSRA
BECMG 1305/1307 33018G30KT=

TAF AMD EPLL 121915Z 1219/1318 29010KT 9999 SCT025
TEMPO 1219/1221 -SHRA BKN012CB
TEMPO 1306/1316 30018G31KT=

TAF EPMO 121730Z 1218/1318 27003KT 9999 SCT025
TEMPO 1218/1221 4000 SHRA SCT008 BKN020CB
PROB30 TEMPO 1218/1220 2900 TSRA BKN014CB
BECMG 1218/1221 29013KT
TEMPO 1307/1315 30020G31KT
PROB40 TEMPO 1312/1316 SHRA BKN035CB=

TAF AMD EPPO 121947Z 1219/1318 28012KT CAVOK
TEMPO 1219/1224 SHRA BKN014CB
PROB40 TEMPO 1219/1221 27015G30KT 4000 TSRA
BECMG 1303/1306 31020G30KT
BECMG 1315/1318 30010KT=

TAF EPRZ 121730Z 1218/1318 27010KT CAVOK
TEMPO 1218/1303 4000 SHRA BKN025CB
PROB30 TEMPO 1218/1224 VRB16G30KT 2000 TSRA
BECMG 1303/1306 32018G30KT=

TAF EPSC 121730Z 1218/1318 30012KT CAVOK
TEMPO 1218/1316 32017G27KT=

TAF EPWA 121730Z 1218/1318 27003KT 9999 SCT025
TEMPO 1218/1221 4000 SHRA SCT008 BKN020CB
PROB30 TEMPO 1218/1220 2900 TSRA BKN014CB
BECMG 1218/1221 29013KT
TEMPO 1306/1315 30018G28KT
PROB40 TEMPO 1312/1316 SHRA BKN035CB=

TAF EPWR 121730Z 1218/1318 29008KT 9999 SCT030
TEMPO 1218/1224 32015G29KT SHRA BKN017CB
BECMG 1303/1306 31020G30KT
BECMG 1315/1318 30010KT=



IMGW-PIB Sites